AAL2057 KSAN-KPHX
Flight info
| Callsign | AAL2057 |
|---|---|
| Flight time | 0h 51m |
| Altitude | 35000 |
| Route | ZZOOO4 HOGGZ HYDRR1 |
| Aircraft | B738/M-SDE2E3FGHIRWXY/LB1 |
Departure
| Time | 2026-05-03 23:06 |
|---|---|
| Airport | San Diego International Airport (KSAN) |
Arrival
| Time | 2026-05-03 23:57 |
|---|---|
| Airport | Phoenix Sky Harbor International Airport (KPHX) |
| Time | Latitude | Longitude | Altitude | Speed | Heading |
|---|---|---|---|---|---|
| 2026-05-03 22:42 | 32.73248 | -117.20161 | 22 ft | 0 kts | 111° |
| 2026-05-03 22:53 | 32.73252 | -117.20172 | 22 ft | 4 kts | 113° |
| 2026-05-03 22:54 | 32.73264 | -117.20200 | 22 ft | 4 kts | 121° |
| 2026-05-03 22:54 | 32.73279 | -117.20227 | 22 ft | 4 kts | 125° |
| 2026-05-03 22:54 | 32.73293 | -117.20254 | 22 ft | 4 kts | 107° |
| 2026-05-03 22:54 | 32.73294 | -117.20271 | 23 ft | 0 kts | 41° |
| 2026-05-03 22:57 | 32.73298 | -117.20268 | 23 ft | 4 kts | 30° |
| 2026-05-03 22:57 | 32.73334 | -117.20271 | 22 ft | 6 kts | 347° |
| 2026-05-03 22:58 | 32.73372 | -117.20279 | 23 ft | 6 kts | 359° |
| 2026-05-03 22:58 | 32.73415 | -117.20271 | 22 ft | 7 kts | 12° |
| 2026-05-03 22:58 | 32.73467 | -117.20254 | 22 ft | 9 kts | 15° |
| 2026-05-03 22:58 | 32.73528 | -117.20225 | 23 ft | 10 kts | 38° |
| 2026-05-03 22:59 | 32.73539 | -117.20148 | 23 ft | 11 kts | 103° |
| 2026-05-03 22:59 | 32.73513 | -117.20040 | 22 ft | 15 kts | 106° |
| 2026-05-03 22:59 | 32.73484 | -117.19916 | 23 ft | 15 kts | 106° |
| 2026-05-03 22:59 | 32.73455 | -117.19798 | 23 ft | 15 kts | 107° |
| 2026-05-03 23:00 | 32.73426 | -117.19685 | 22 ft | 14 kts | 107° |
| 2026-05-03 23:00 | 32.73400 | -117.19576 | 24 ft | 13 kts | 104° |
| 2026-05-03 23:00 | 32.73374 | -117.19472 | 24 ft | 13 kts | 106° |
| 2026-05-03 23:00 | 32.73358 | -117.19405 | 24 ft | 13 kts | 106° |
| 2026-05-03 23:01 | 32.73335 | -117.19305 | 21 ft | 12 kts | 105° |
| 2026-05-03 23:01 | 32.73313 | -117.19208 | 23 ft | 12 kts | 106° |
| 2026-05-03 23:01 | 32.73287 | -117.19110 | 22 ft | 14 kts | 106° |
| 2026-05-03 23:01 | 32.73255 | -117.18976 | 23 ft | 20 kts | 106° |
| 2026-05-03 23:02 | 32.73214 | -117.18805 | 24 ft | 22 kts | 106° |
| 2026-05-03 23:02 | 32.73173 | -117.18635 | 23 ft | 21 kts | 105° |
| 2026-05-03 23:02 | 32.73133 | -117.18473 | 21 ft | 20 kts | 106° |
| 2026-05-03 23:02 | 32.73094 | -117.18313 | 22 ft | 20 kts | 105° |
| 2026-05-03 23:03 | 32.73057 | -117.18158 | 22 ft | 19 kts | 105° |
| 2026-05-03 23:03 | 32.73022 | -117.18007 | 21 ft | 19 kts | 103° |
| 2026-05-03 23:03 | 32.72987 | -117.17863 | 22 ft | 18 kts | 108° |
| 2026-05-03 23:03 | 32.72953 | -117.17734 | 21 ft | 13 kts | 98° |
| 2026-05-03 23:04 | 32.72954 | -117.17689 | 21 ft | 0 kts | 80° |
| 2026-05-03 23:04 | 32.72962 | -117.17648 | 23 ft | 13 kts | 75° |
| 2026-05-03 23:05 | 32.73032 | -117.17629 | 22 ft | 14 kts | 296° |
| 2026-05-03 23:05 | 32.73083 | -117.17840 | 21 ft | 59 kts | 286° |
| 2026-05-03 23:05 | 32.73269 | -117.18605 | 22 ft | 133 kts | 286° |
| 2026-05-03 23:05 | 32.73571 | -117.19884 | 220 ft | 177 kts | 287° |
| 2026-05-03 23:06 | 32.73922 | -117.21312 | 1051 ft | 186 kts | 288° |
| 2026-05-03 23:06 | 32.74311 | -117.22812 | 1942 ft | 194 kts | 290° |
| 2026-05-03 23:06 | 32.74731 | -117.24380 | 2671 ft | 209 kts | 286° |
| 2026-05-03 23:06 | 32.75137 | -117.26156 | 3026 ft | 232 kts | 285° |
| 2026-05-03 23:07 | 32.75571 | -117.28031 | 3724 ft | 238 kts | 284° |
| 2026-05-03 23:07 | 32.76022 | -117.29942 | 4505 ft | 242 kts | 284° |
| 2026-05-03 23:07 | 32.76472 | -117.31905 | 5311 ft | 249 kts | 277° |
| 2026-05-03 23:07 | 32.76329 | -117.33925 | 6214 ft | 247 kts | 245° |
| 2026-05-03 23:08 | 32.75346 | -117.35557 | 7116 ft | 245 kts | 217° |
| 2026-05-03 23:08 | 32.73825 | -117.36429 | 8016 ft | 246 kts | 191° |
| 2026-05-03 23:08 | 32.72113 | -117.36329 | 8854 ft | 253 kts | 162° |
| 2026-05-03 23:08 | 32.70602 | -117.35239 | 9717 ft | 260 kts | 139° |
| 2026-05-03 23:09 | 32.69375 | -117.33623 | 10560 ft | 266 kts | 133° |
| 2026-05-03 23:09 | 32.68207 | -117.31892 | 11375 ft | 271 kts | 133° |
| 2026-05-03 23:09 | 32.67031 | -117.30160 | 12183 ft | 275 kts | 135° |
| 2026-05-03 23:09 | 32.65797 | -117.28374 | 12991 ft | 279 kts | 135° |
| 2026-05-03 23:10 | 32.64541 | -117.26581 | 13675 ft | 286 kts | 136° |
| 2026-05-03 23:10 | 32.63357 | -117.24683 | 14363 ft | 300 kts | 121° |
| 2026-05-03 23:10 | 32.62807 | -117.22193 | 14754 ft | 330 kts | 102° |
| 2026-05-03 23:10 | 32.62585 | -117.19372 | 14944 ft | 356 kts | 99° |
| 2026-05-03 23:11 | 32.62362 | -117.16359 | 15202 ft | 376 kts | 99° |
| 2026-05-03 23:11 | 32.62105 | -117.13232 | 15768 ft | 385 kts | 100° |
| 2026-05-03 23:11 | 32.62076 | -117.10021 | 16411 ft | 398 kts | 83° |
| 2026-05-03 23:11 | 32.62925 | -117.06862 | 17088 ft | 406 kts | 69° |
| 2026-05-03 23:12 | 32.64006 | -117.03746 | 17722 ft | 412 kts | 69° |
| 2026-05-03 23:12 | 32.65089 | -117.00564 | 18307 ft | 419 kts | 70° |
| 2026-05-03 23:12 | 32.66160 | -116.97320 | 18912 ft | 424 kts | 71° |
| 2026-05-03 23:12 | 32.66820 | -116.93915 | 19519 ft | 425 kts | 91° |
| 2026-05-03 23:13 | 32.66868 | -116.90411 | 20191 ft | 426 kts | 93° |
| 2026-05-03 23:13 | 32.66887 | -116.86871 | 20747 ft | 432 kts | 93° |
| 2026-05-03 23:13 | 32.66931 | -116.83278 | 21282 ft | 438 kts | 92° |
| 2026-05-03 23:13 | 32.67005 | -116.79640 | 21810 ft | 443 kts | 91° |
| 2026-05-03 23:14 | 32.67092 | -116.75970 | 22319 ft | 448 kts | 91° |
| 2026-05-03 23:14 | 32.67141 | -116.72296 | 22836 ft | 451 kts | 94° |
| 2026-05-03 23:14 | 32.67094 | -116.68558 | 23007 ft | 454 kts | 95° |
| 2026-05-03 23:14 | 32.67009 | -116.64803 | 23005 ft | 453 kts | 95° |
| 2026-05-03 23:15 | 32.66919 | -116.61057 | 22984 ft | 453 kts | 95° |
| 2026-05-03 23:15 | 32.66837 | -116.57325 | 22983 ft | 452 kts | 95° |
| 2026-05-03 23:15 | 32.66764 | -116.53597 | 23010 ft | 452 kts | 94° |
| 2026-05-03 23:15 | 32.66700 | -116.49860 | 22978 ft | 454 kts | 94° |
| 2026-05-03 23:16 | 32.66640 | -116.46113 | 22979 ft | 454 kts | 94° |
| 2026-05-03 23:16 | 32.66583 | -116.42366 | 22971 ft | 454 kts | 93° |
| 2026-05-03 23:16 | 32.66737 | -116.38615 | 22965 ft | 457 kts | 87° |
| 2026-05-03 23:16 | 32.67083 | -116.34914 | 22953 ft | 457 kts | 85° |
| 2026-05-03 23:17 | 32.67493 | -116.31178 | 22946 ft | 456 kts | 84° |
| 2026-05-03 23:17 | 32.67898 | -116.27437 | 22931 ft | 456 kts | 85° |
| 2026-05-03 23:17 | 32.68277 | -116.23697 | 22889 ft | 458 kts | 85° |
| 2026-05-03 23:17 | 32.68634 | -116.19914 | 23120 ft | 464 kts | 86° |
| 2026-05-03 23:18 | 32.68976 | -116.16117 | 23783 ft | 463 kts | 86° |
| 2026-05-03 23:18 | 32.69313 | -116.12312 | 24397 ft | 463 kts | 86° |
| 2026-05-03 23:18 | 32.69651 | -116.08479 | 24766 ft | 471 kts | 86° |
| 2026-05-03 23:18 | 32.69994 | -116.04595 | 25144 ft | 475 kts | 86° |
| 2026-05-03 23:19 | 32.70345 | -116.00666 | 25542 ft | 480 kts | 86° |
| 2026-05-03 23:19 | 32.70709 | -115.96710 | 25913 ft | 485 kts | 85° |
| 2026-05-03 23:19 | 32.71080 | -115.92716 | 26349 ft | 488 kts | 85° |
| 2026-05-03 23:19 | 32.71455 | -115.88696 | 26758 ft | 491 kts | 85° |
| 2026-05-03 23:20 | 32.71825 | -115.84703 | 27118 ft | 495 kts | 85° |
| 2026-05-03 23:20 | 32.72202 | -115.80618 | 27455 ft | 500 kts | 85° |
| 2026-05-03 23:20 | 32.72580 | -115.76500 | 27806 ft | 504 kts | 85° |
| 2026-05-03 23:20 | 32.72956 | -115.72362 | 28278 ft | 504 kts | 85° |
| 2026-05-03 23:21 | 32.73332 | -115.68219 | 28798 ft | 503 kts | 85° |
| 2026-05-03 23:21 | 32.73704 | -115.64089 | 29250 ft | 503 kts | 86° |
| 2026-05-03 23:21 | 32.74077 | -115.59941 | 29634 ft | 506 kts | 85° |
| 2026-05-03 23:21 | 32.74450 | -115.55775 | 30058 ft | 507 kts | 85° |
| 2026-05-03 23:22 | 32.75113 | -115.47436 | 30748 ft | 510 kts | 89° |
| 2026-05-03 23:22 | 32.75315 | -115.38996 | 30735 ft | 508 kts | 92° |
| 2026-05-03 23:23 | 32.75411 | -115.30665 | 30747 ft | 504 kts | 91° |
| 2026-05-03 23:23 | 32.75558 | -115.22393 | 30755 ft | 504 kts | 91° |
| 2026-05-03 23:24 | 32.75739 | -115.14074 | 30761 ft | 503 kts | 91° |
| 2026-05-03 23:24 | 32.75922 | -115.05753 | 30762 ft | 504 kts | 91° |
| 2026-05-03 23:25 | 32.76100 | -114.97408 | 30764 ft | 505 kts | 91° |
| 2026-05-03 23:25 | 32.76270 | -114.89069 | 30761 ft | 504 kts | 91° |
| 2026-05-03 23:26 | 32.76436 | -114.80679 | 30778 ft | 514 kts | 91° |
| 2026-05-03 23:26 | 32.76596 | -114.72046 | 30786 ft | 530 kts | 91° |
| 2026-05-03 23:27 | 32.76759 | -114.63185 | 30781 ft | 542 kts | 91° |
| 2026-05-03 23:27 | 32.76908 | -114.54250 | 30761 ft | 544 kts | 91° |
| 2026-05-03 23:28 | 32.77032 | -114.45256 | 30770 ft | 543 kts | 91° |
| 2026-05-03 23:28 | 32.77150 | -114.36283 | 30775 ft | 542 kts | 91° |
| 2026-05-03 23:29 | 32.77261 | -114.27331 | 30779 ft | 543 kts | 91° |
| 2026-05-03 23:29 | 32.77365 | -114.18427 | 30781 ft | 542 kts | 91° |
| 2026-05-03 23:30 | 32.77471 | -114.09471 | 30770 ft | 542 kts | 91° |
| 2026-05-03 23:30 | 32.77955 | -114.00529 | 30773 ft | 542 kts | 83° |
| 2026-05-03 23:31 | 32.79089 | -113.91656 | 30085 ft | 545 kts | 81° |
| 2026-05-03 23:31 | 32.79650 | -113.87203 | 29342 ft | 543 kts | 82° |
| 2026-05-03 23:31 | 32.80161 | -113.82765 | 28539 ft | 542 kts | 83° |
| 2026-05-03 23:32 | 32.80642 | -113.78316 | 27701 ft | 542 kts | 83° |
| 2026-05-03 23:32 | 32.81108 | -113.73928 | 27507 ft | 527 kts | 83° |
| 2026-05-03 23:32 | 32.81941 | -113.69749 | 27229 ft | 513 kts | 66° |
| 2026-05-03 23:32 | 32.83586 | -113.66061 | 26764 ft | 500 kts | 51° |
| 2026-05-03 23:33 | 32.85804 | -113.62939 | 26281 ft | 489 kts | 43° |
| 2026-05-03 23:33 | 32.88093 | -113.59970 | 25763 ft | 484 kts | 43° |
| 2026-05-03 23:33 | 32.90362 | -113.57028 | 25249 ft | 480 kts | 44° |
| 2026-05-03 23:33 | 32.92568 | -113.54129 | 24750 ft | 475 kts | 44° |
| 2026-05-03 23:34 | 32.94763 | -113.51204 | 24248 ft | 471 kts | 45° |
| 2026-05-03 23:34 | 32.96926 | -113.48293 | 23750 ft | 466 kts | 45° |
| 2026-05-03 23:34 | 32.99068 | -113.45396 | 23244 ft | 462 kts | 46° |
| 2026-05-03 23:34 | 33.01185 | -113.42530 | 22764 ft | 457 kts | 46° |
| 2026-05-03 23:35 | 33.03277 | -113.39700 | 22272 ft | 453 kts | 46° |
| 2026-05-03 23:35 | 33.05325 | -113.36928 | 21794 ft | 448 kts | 46° |
| 2026-05-03 23:35 | 33.07371 | -113.34162 | 21508 ft | 439 kts | 46° |
| 2026-05-03 23:35 | 33.09368 | -113.31463 | 21240 ft | 430 kts | 46° |
| 2026-05-03 23:36 | 33.11330 | -113.28810 | 20972 ft | 423 kts | 46° |
| 2026-05-03 23:36 | 33.13262 | -113.26197 | 20710 ft | 417 kts | 46° |
| 2026-05-03 23:36 | 33.15188 | -113.23591 | 20467 ft | 420 kts | 46° |
| 2026-05-03 23:36 | 33.17133 | -113.20960 | 20214 ft | 424 kts | 46° |
| 2026-05-03 23:37 | 33.19086 | -113.18312 | 19933 ft | 423 kts | 46° |
| 2026-05-03 23:37 | 33.20997 | -113.15718 | 19664 ft | 419 kts | 46° |
| 2026-05-03 23:37 | 33.22912 | -113.13114 | 19399 ft | 415 kts | 47° |
| 2026-05-03 23:37 | 33.24803 | -113.10545 | 19143 ft | 410 kts | 47° |
| 2026-05-03 23:38 | 33.26533 | -113.07864 | 18848 ft | 405 kts | 61° |
| 2026-05-03 23:38 | 33.27477 | -113.04743 | 18563 ft | 396 kts | 81° |
| 2026-05-03 23:38 | 33.27691 | -113.01497 | 18258 ft | 388 kts | 90° |
| 2026-05-03 23:38 | 33.27739 | -112.98289 | 17934 ft | 383 kts | 91° |
| 2026-05-03 23:39 | 33.27775 | -112.95162 | 17610 ft | 379 kts | 91° |
| 2026-05-03 23:39 | 33.27823 | -112.92032 | 17279 ft | 375 kts | 91° |
| 2026-05-03 23:39 | 33.27889 | -112.88896 | 16963 ft | 370 kts | 90° |
| 2026-05-03 23:39 | 33.27960 | -112.85881 | 16679 ft | 365 kts | 90° |
| 2026-05-03 23:40 | 33.28033 | -112.82868 | 16349 ft | 360 kts | 90° |
| 2026-05-03 23:40 | 33.28185 | -112.79909 | 16219 ft | 352 kts | 86° |
| 2026-05-03 23:40 | 33.28447 | -112.77022 | 15936 ft | 347 kts | 85° |
| 2026-05-03 23:40 | 33.28741 | -112.74176 | 15671 ft | 342 kts | 85° |
| 2026-05-03 23:41 | 33.29031 | -112.71358 | 15368 ft | 340 kts | 85° |
| 2026-05-03 23:41 | 33.29313 | -112.68545 | 15099 ft | 343 kts | 85° |
| 2026-05-03 23:41 | 33.29592 | -112.65664 | 14826 ft | 355 kts | 85° |
| 2026-05-03 23:41 | 33.29873 | -112.62708 | 14523 ft | 361 kts | 85° |
| 2026-05-03 23:42 | 33.30153 | -112.59726 | 14203 ft | 358 kts | 86° |
| 2026-05-03 23:42 | 33.30426 | -112.56800 | 13893 ft | 356 kts | 86° |
| 2026-05-03 23:42 | 33.30699 | -112.53867 | 13590 ft | 353 kts | 86° |
| 2026-05-03 23:42 | 33.30968 | -112.50953 | 13301 ft | 351 kts | 86° |
| 2026-05-03 23:43 | 33.31236 | -112.48058 | 12979 ft | 349 kts | 86° |
| 2026-05-03 23:43 | 33.31502 | -112.45178 | 12548 ft | 348 kts | 86° |
| 2026-05-03 23:43 | 33.31765 | -112.42333 | 12192 ft | 342 kts | 86° |
| 2026-05-03 23:43 | 33.32020 | -112.39562 | 11911 ft | 336 kts | 86° |
| 2026-05-03 23:44 | 33.32273 | -112.36799 | 11613 ft | 332 kts | 86° |
| 2026-05-03 23:44 | 33.32518 | -112.34054 | 11350 ft | 331 kts | 87° |
| 2026-05-03 23:44 | 33.32760 | -112.31326 | 11097 ft | 329 kts | 86° |
| 2026-05-03 23:44 | 33.33010 | -112.28611 | 10832 ft | 327 kts | 86° |
| 2026-05-03 23:45 | 33.33259 | -112.25918 | 10582 ft | 324 kts | 86° |
| 2026-05-03 23:45 | 33.33502 | -112.23268 | 10320 ft | 318 kts | 86° |
| 2026-05-03 23:45 | 33.33739 | -112.20657 | 10073 ft | 313 kts | 86° |
| 2026-05-03 23:45 | 33.33971 | -112.18108 | 9977 ft | 301 kts | 87° |
| 2026-05-03 23:46 | 33.34192 | -112.15671 | 9650 ft | 293 kts | 87° |
| 2026-05-03 23:46 | 33.34406 | -112.13284 | 9407 ft | 283 kts | 87° |
| 2026-05-03 23:46 | 33.34609 | -112.11016 | 9161 ft | 274 kts | 87° |
| 2026-05-03 23:46 | 33.34796 | -112.08764 | 8792 ft | 273 kts | 90° |
| 2026-05-03 23:47 | 33.34809 | -112.06471 | 8234 ft | 278 kts | 95° |
| 2026-05-03 23:47 | 33.34747 | -112.04141 | 7639 ft | 281 kts | 95° |
| 2026-05-03 23:47 | 33.34688 | -112.01791 | 7061 ft | 284 kts | 94° |
| 2026-05-03 23:47 | 33.34660 | -112.00220 | 6673 ft | 286 kts | 94° |
| 2026-05-03 23:48 | 33.34620 | -111.97836 | 6058 ft | 287 kts | 94° |
| 2026-05-03 23:48 | 33.34585 | -111.95446 | 5448 ft | 288 kts | 93° |
| 2026-05-03 23:48 | 33.34556 | -111.93087 | 5176 ft | 277 kts | 93° |
| 2026-05-03 23:48 | 33.34528 | -111.90834 | 5045 ft | 263 kts | 93° |
| 2026-05-03 23:49 | 33.34498 | -111.88713 | 5014 ft | 246 kts | 94° |
| 2026-05-03 23:49 | 33.34464 | -111.86736 | 5002 ft | 231 kts | 94° |
| 2026-05-03 23:49 | 33.34426 | -111.84852 | 5020 ft | 228 kts | 94° |
| 2026-05-03 23:49 | 33.34385 | -111.82955 | 5034 ft | 229 kts | 94° |
| 2026-05-03 23:50 | 33.34345 | -111.81045 | 5048 ft | 229 kts | 94° |
| 2026-05-03 23:50 | 33.34295 | -111.79130 | 5032 ft | 231 kts | 94° |
| 2026-05-03 23:50 | 33.34260 | -111.77199 | 5049 ft | 231 kts | 94° |
| 2026-05-03 23:50 | 33.34267 | -111.75296 | 5034 ft | 234 kts | 84° |
| 2026-05-03 23:51 | 33.34808 | -111.73477 | 4945 ft | 234 kts | 59° |
| 2026-05-03 23:51 | 33.35948 | -111.72059 | 4589 ft | 242 kts | 33° |
| 2026-05-03 23:51 | 33.37512 | -111.71328 | 4312 ft | 242 kts | 8° |
| 2026-05-03 23:51 | 33.39194 | -111.71243 | 4167 ft | 242 kts | 359° |
| 2026-05-03 23:52 | 33.40887 | -111.71241 | 4078 ft | 244 kts | 359° |
| 2026-05-03 23:52 | 33.42566 | -111.71297 | 4017 ft | 239 kts | 348° |
| 2026-05-03 23:52 | 33.43979 | -111.72211 | 4039 ft | 229 kts | 307° |
| 2026-05-03 23:52 | 33.44537 | -111.73863 | 4049 ft | 212 kts | 266° |
| 2026-05-03 23:53 | 33.44101 | -111.75445 | 4051 ft | 199 kts | 238° |
| 2026-05-03 23:53 | 33.43568 | -111.76987 | 4038 ft | 202 kts | 251° |
| 2026-05-03 23:53 | 33.43216 | -111.78608 | 4031 ft | 202 kts | 257° |
| 2026-05-03 23:53 | 33.43016 | -111.80341 | 4053 ft | 216 kts | 260° |
| 2026-05-03 23:54 | 33.42877 | -111.82154 | 4043 ft | 219 kts | 266° |
| 2026-05-03 23:54 | 33.42877 | -111.84000 | 3808 ft | 225 kts | 268° |
| 2026-05-03 23:54 | 33.42887 | -111.85870 | 3486 ft | 224 kts | 267° |
| 2026-05-03 23:54 | 33.42885 | -111.87708 | 3198 ft | 216 kts | 267° |
| 2026-05-03 23:55 | 33.42883 | -111.89454 | 2905 ft | 204 kts | 267° |
| 2026-05-03 23:55 | 33.42881 | -111.91100 | 2648 ft | 192 kts | 267° |
| 2026-05-03 23:55 | 33.42871 | -111.92646 | 2408 ft | 179 kts | 265° |
| 2026-05-03 23:55 | 33.42852 | -111.94079 | 2162 ft | 167 kts | 265° |
| 2026-05-03 23:56 | 33.42822 | -111.95424 | 1964 ft | 154 kts | 264° |
| 2026-05-03 23:56 | 33.42848 | -111.96694 | 1688 ft | 151 kts | 269° |
| 2026-05-03 23:56 | 33.42879 | -111.97916 | 1481 ft | 146 kts | 268° |
| 2026-05-03 23:56 | 33.42885 | -111.99118 | 1317 ft | 143 kts | 269° |
| 2026-05-03 23:57 | 33.42891 | -112.00295 | 1157 ft | 140 kts | 268° |
| 2026-05-03 23:57 | 33.42878 | -112.01461 | 1125 ft | 137 kts | 270° |
| 2026-05-03 23:57 | 33.42885 | -112.02215 | 1121 ft | 53 kts | 270° |
| 2026-05-03 23:57 | 33.42915 | -112.02474 | 1122 ft | 21 kts | 297° |
| 2026-05-03 23:58 | 33.42930 | -112.02505 | 1123 ft | 0 kts | 306° |
| 2026-05-03 23:58 | 33.42947 | -112.02524 | 1123 ft | 9 kts | 324° |
| 2026-05-03 23:58 | 33.43026 | -112.02546 | 1123 ft | 15 kts | 357° |
| 2026-05-03 23:58 | 33.43141 | -112.02550 | 1119 ft | 18 kts | 4° |
| 2026-05-03 23:59 | 33.43217 | -112.02458 | 1118 ft | 17 kts | 89° |
| 2026-05-03 23:59 | 33.43216 | -112.02321 | 1117 ft | 16 kts | 90° |
| 2026-05-03 23:59 | 33.43215 | -112.02187 | 1120 ft | 16 kts | 89° |
| 2026-05-03 23:59 | 33.43215 | -112.02058 | 1122 ft | 15 kts | 90° |
| 2026-05-04 00:00 | 33.43215 | -112.01936 | 1123 ft | 14 kts | 90° |
| 2026-05-04 00:00 | 33.43215 | -112.01819 | 1114 ft | 14 kts | 90° |
| 2026-05-04 00:00 | 33.43215 | -112.01709 | 1123 ft | 13 kts | 90° |
| 2026-05-04 00:00 | 33.43215 | -112.01595 | 1118 ft | 15 kts | 89° |
| 2026-05-04 00:01 | 33.43216 | -112.01457 | 1115 ft | 18 kts | 90° |
| 2026-05-04 00:01 | 33.43216 | -112.01291 | 1120 ft | 21 kts | 90° |
| 2026-05-04 00:01 | 33.43215 | -112.01120 | 1120 ft | 20 kts | 90° |
| 2026-05-04 00:01 | 33.43214 | -112.00954 | 1120 ft | 19 kts | 90° |
| 2026-05-04 00:02 | 33.43215 | -112.00796 | 1120 ft | 19 kts | 90° |
| 2026-05-04 00:02 | 33.43214 | -112.00643 | 1118 ft | 18 kts | 90° |
| 2026-05-04 00:02 | 33.43222 | -112.00498 | 1124 ft | 17 kts | 67° |
| 2026-05-04 00:02 | 33.43327 | -112.00468 | 1119 ft | 16 kts | 0° |
| 2026-05-04 00:03 | 33.43440 | -112.00468 | 1123 ft | 16 kts | 0° |
| 2026-05-04 00:03 | 33.43546 | -112.00468 | 1123 ft | 15 kts | 360° |
| 2026-05-04 00:03 | 33.43648 | -112.00468 | 1121 ft | 14 kts | 0° |
| 2026-05-04 00:03 | 33.43744 | -112.00468 | 1118 ft | 13 kts | 0° |
| 2026-05-04 00:04 | 33.43835 | -112.00468 | 1121 ft | 13 kts | 360° |
| 2026-05-04 00:04 | 33.43904 | -112.00422 | 1120 ft | 12 kts | 77° |
| 2026-05-04 00:04 | 33.43904 | -112.00318 | 1120 ft | 12 kts | 90° |
| 2026-05-04 00:04 | 33.43879 | -112.00235 | 1116 ft | 11 kts | 155° |
| 2026-05-04 00:05 | 33.43843 | -112.00221 | 1113 ft | 2 kts | 161° |
| 2026-05-04 00:05 | 33.43832 | -112.00216 | 1123 ft | 1 kts | 161° |
| 2026-05-04 00:05 | 33.43830 | -112.00216 | 1123 ft | 0 kts | 161° |